LFBT

Details ICAO LFBT (LDE)
Name Tarbes Ossun Lourdes
Region France
Timezone Europe/Paris (UTC+1.0)
Plans Departing 118
Arriving 72
Stats Elevation 1,260 ft / 384 m (AMSL)
Location 43.178643° -0.006340°
Runways 1
Magnetic Variation 0.219° E
Sunrise 2017-12-17 07:27:44 UTC / 2017-12-17 08:27:44 Local
Sunset 2017-12-17 16:27:17 UTC / 2017-12-17 17:27:17 Local
Advertisement - Login to hide

Runways

ID Width Length Bearing (true) Bearing (mag) Surface Threshold Offset Overrun Length
02 148 ft / 45 m 9,847 ft / 3,001 m 20.26° 20.04° Asphalt 2,199 ft / 670 m 0 ft / 0 m
20 148 ft / 45 m 9,847 ft / 3,001 m 200.27° 200.05° Asphalt 0 ft / 0 m 0 ft / 0 m

Approach Navaids

Runway Type Ident Frequency Range Bearing (true) Bearing (mag) Slope Elevation
20 Localiser OS 109.50 MHz 18 nm / 33 km 200.27° 200.05° - 1,265 ft / 386 m (AMSL)
20 Glidescope OS 109.50 MHz 10 nm / 19 km 200.27° 200.05° 3.00° 1,265 ft / 386 m (AMSL)
20 DME OS 109.50 MHz 18 nm / 33 km - - - 1,217 ft / 371 m (AMSL)

Map

Weather


0- 5 10 15 20 25 30 35+ Temperature / ° C

Clouds and Precipitation
Forecast for 2017-12-17 00:00 UTC. Updated an hour ago

Ground ~20,000 ft ~40,000 ft Winds

METAR

LFBT 170030Z AUTO 19007KT CAVOK M01/M02 Q1028 NOSIG

TAF

TAF LFBT 162300Z 1700/1724 21004KT 9999 BKN040= TAF LFOB 162300Z 1700/1724 VRB03KT 9999 BKN020 TEMPO 1700/1703 3000 RA OVC008 BECMG 1703/1706 0200 FZFG VV/// BECMG 1709/1712 8000 NSW NSC BECMG 1718/1720 20010KT 3000 DZ OVC004

Frequencies

Recorded 125.95 MHz ATIS
Tower 119.05 MHz TWR
Approach 121.17 MHz PYRENEES APP
Ground 121.80 MHz GND
Approach 120.30 MHz APP
Warning: Do not use this data for real-world aviation or navigation. No guarantee of current accuracy is given.